createdAt,value
2023-02-17T00:01:30.782Z,58.76
2023-02-17T00:03:39.086Z,58.60
2023-02-17T00:05:41.276Z,58.51
2023-02-17T00:07:43.870Z,58.52
2023-02-17T00:09:48.733Z,59.15
2023-02-17T00:11:51.334Z,58.34
2023-02-17T00:13:56.195Z,58.51
2023-02-17T00:16:01.084Z,58.33
2023-02-17T00:18:06.093Z,58.75
2023-02-17T00:20:08.582Z,58.95
2023-02-17T00:22:10.613Z,59.20
2023-02-17T00:24:12.560Z,58.97
2023-02-17T00:26:15.973Z,59.24
2023-02-17T00:28:21.135Z,59.15
2023-02-17T00:30:25.093Z,58.72
2023-02-17T00:32:28.266Z,58.35
2023-02-17T00:34:30.271Z,58.61
2023-02-17T00:36:32.513Z,57.97
2023-02-17T00:38:37.033Z,58.19
2023-02-17T00:40:39.301Z,58.56
2023-02-17T00:42:41.725Z,58.86
2023-02-17T00:44:44.144Z,58.37
2023-02-17T00:46:46.856Z,58.55
2023-02-17T00:48:49.962Z,58.95
2023-02-17T00:50:52.157Z,58.51
2023-02-17T00:52:54.649Z,58.58
2023-02-17T00:54:57.277Z,58.11
2023-02-17T00:56:59.398Z,57.87
2023-02-17T00:59:01.583Z,58.01
2023-02-17T01:01:04.392Z,57.80
2023-02-17T01:03:06.324Z,57.93
2023-02-17T01:05:08.740Z,58.08
2023-02-17T01:07:11.049Z,58.44
2023-02-17T01:09:14.898Z,59.04
2023-02-17T01:11:19.249Z,58.51
2023-02-17T01:13:21.798Z,58.40
2023-02-17T01:15:24.232Z,58.18
2023-02-17T01:17:26.371Z,58.86
2023-02-17T01:19:30.484Z,58.73
2023-02-17T01:21:33.226Z,59.00
2023-02-17T01:23:35.410Z,58.92
2023-02-17T01:25:41.693Z,58.45
2023-02-17T01:27:44.264Z,58.46
2023-02-17T01:29:46.814Z,58.04
2023-02-17T01:31:48.848Z,58.10
2023-02-17T01:33:50.844Z,58.15
2023-02-17T01:35:52.849Z,58.49
2023-02-17T01:37:55.378Z,57.92
2023-02-17T01:39:58.694Z,57.75
2023-02-17T01:42:01.337Z,57.95
2023-02-17T01:44:14.603Z,57.98
2023-02-17T01:46:16.655Z,58.08
2023-02-17T01:48:43.548Z,57.76
2023-02-17T01:51:02.886Z,57.84
2023-02-17T01:53:07.724Z,57.80
2023-02-17T01:55:15.545Z,57.70
2023-02-17T01:57:21.677Z,57.53
2023-02-17T01:59:24.035Z,57.58
2023-02-17T02:01:25.977Z,57.62
2023-02-17T02:03:32.509Z,57.65
2023-02-17T02:05:37.486Z,57.98
2023-02-17T02:07:43.200Z,57.61
2023-02-17T02:09:50.996Z,57.59
2023-02-17T02:11:53.138Z,57.54
2023-02-17T02:13:55.514Z,57.57
2023-02-17T02:16:22.175Z,58.19
2023-02-17T02:19:05.482Z,58.59
2023-02-17T02:21:48.868Z,57.57
2023-02-17T02:24:03.502Z,58.18
2023-02-17T02:26:05.733Z,58.15
2023-02-17T02:28:38.919Z,58.18
2023-02-17T02:31:09.576Z,58.06
2023-02-17T02:33:32.813Z,57.87
2023-02-17T02:35:51.595Z,57.96
2023-02-17T02:37:57.460Z,58.37
2023-02-17T02:40:05.942Z,57.64
2023-02-17T02:42:13.834Z,57.90
2023-02-17T02:44:20.946Z,57.73
2023-02-17T02:46:22.932Z,57.68
2023-02-17T02:48:26.462Z,57.48
2023-02-17T02:50:36.939Z,57.99
2023-02-17T02:53:06.220Z,57.80
2023-02-17T02:55:17.219Z,57.98
2023-02-17T02:57:48.834Z,57.88
2023-02-17T03:00:13.678Z,57.56
2023-02-17T03:02:27.522Z,57.39
2023-02-17T03:05:14.948Z,57.31
2023-02-17T03:07:30.440Z,57.36
2023-02-17T03:09:33.255Z,57.43
2023-02-17T03:11:35.983Z,57.45
2023-02-17T03:13:41.135Z,57.55
2023-02-17T03:15:46.622Z,57.53
2023-02-17T03:17:48.594Z,57.55
2023-02-17T03:19:50.912Z,57.47
2023-02-17T03:22:01.812Z,57.17
2023-02-17T03:24:04.606Z,57.37
2023-02-17T03:26:07.180Z,57.10
2023-02-17T03:28:09.519Z,57.39
2023-02-17T03:30:11.966Z,57.39
2023-02-17T03:32:14.137Z,57.64
2023-02-17T03:34:16.266Z,57.38
2023-02-17T03:36:18.377Z,57.58
2023-02-17T03:38:20.398Z,57.26
2023-02-17T03:40:22.413Z,57.34
2023-02-17T03:42:27.238Z,57.78
2023-02-17T03:44:29.362Z,57.29
2023-02-17T03:46:31.420Z,57.54
2023-02-17T03:48:33.503Z,57.44
2023-02-17T03:50:35.930Z,57.34
2023-02-17T03:52:38.228Z,57.32
2023-02-17T03:54:41.575Z,57.37
2023-02-17T03:56:43.694Z,57.43
2023-02-17T03:58:46.231Z,58.19
2023-02-17T04:00:48.402Z,58.08
2023-02-17T04:02:50.576Z,57.85
2023-02-17T04:04:52.658Z,58.23
2023-02-17T04:06:54.483Z,58.56
2023-02-17T04:08:58.805Z,58.64
2023-02-17T04:11:02.648Z,58.09
2023-02-17T04:13:05.136Z,58.10
2023-02-17T04:15:07.881Z,57.92
2023-02-17T04:17:10.022Z,57.97
2023-02-17T04:19:14.083Z,58.22
2023-02-17T04:21:16.370Z,58.03
2023-02-17T04:23:20.892Z,57.82
2023-02-17T04:25:23.684Z,58.19
2023-02-17T04:27:25.885Z,58.42
2023-02-17T04:29:27.810Z,58.34
2023-02-17T04:31:30.039Z,57.94
2023-02-17T04:33:32.424Z,58.22
2023-02-17T04:35:34.577Z,57.96
2023-02-17T04:37:36.876Z,57.81
2023-02-17T04:39:39.327Z,58.03
2023-02-17T04:41:41.371Z,57.84
2023-02-17T04:43:43.457Z,57.74
2023-02-17T04:45:45.887Z,58.14
2023-02-17T04:47:47.968Z,57.91
2023-02-17T04:49:49.955Z,58.06
2023-02-17T04:51:52.136Z,58.04
2023-02-17T04:53:54.875Z,57.91
2023-02-17T04:55:56.877Z,57.96
2023-02-17T04:57:58.880Z,57.95
2023-02-17T05:00:01.102Z,58.12
2023-02-17T05:02:03.264Z,57.92
2023-02-17T05:04:05.976Z,58.01
2023-02-17T05:06:08.165Z,58.01
2023-02-17T05:08:13.020Z,57.44
2023-02-17T05:10:16.981Z,57.67
2023-02-17T05:12:18.990Z,57.65
2023-02-17T05:14:21.058Z,57.88
2023-02-17T05:16:23.141Z,57.89
2023-02-17T05:18:27.903Z,57.64
2023-02-17T05:20:30.625Z,57.77
2023-02-17T05:22:32.728Z,57.50
2023-02-17T05:24:34.980Z,58.03
2023-02-17T05:26:37.053Z,58.02
2023-02-17T05:28:39.208Z,58.07
2023-02-17T05:30:41.269Z,57.96
2023-02-17T05:32:43.288Z,57.66
2023-02-17T05:34:45.466Z,57.88
2023-02-17T05:36:47.783Z,58.09
2023-02-17T05:38:51.299Z,58.32
2023-02-17T05:40:56.626Z,58.43
2023-02-17T05:42:58.938Z,57.87
2023-02-17T05:45:01.284Z,58.05
2023-02-17T05:47:03.483Z,57.90
2023-02-17T05:49:05.780Z,58.24
2023-02-17T05:51:08.030Z,58.46
2023-02-17T05:53:10.224Z,58.46
2023-02-17T05:55:12.156Z,58.61
2023-02-17T05:57:14.266Z,58.74
2023-02-17T05:59:16.852Z,58.54
2023-02-17T06:01:19.077Z,58.19
2023-02-17T06:03:21.168Z,58.28
2023-02-17T06:05:23.554Z,58.42
2023-02-17T06:07:25.867Z,58.28
2023-02-17T06:09:27.948Z,58.47
2023-02-17T06:11:30.167Z,58.50
2023-02-17T06:13:32.408Z,59.06
2023-02-17T06:15:34.684Z,59.30
2023-02-17T06:17:37.207Z,58.87
2023-02-17T06:19:41.911Z,59.82
2023-02-17T06:21:44.204Z,59.33
2023-02-17T06:23:47.407Z,59.53
2023-02-17T06:25:49.606Z,59.91
2023-02-17T06:27:51.600Z,59.64
2023-02-17T06:29:53.824Z,60.03
2023-02-17T06:31:56.019Z,60.12
2023-02-17T06:33:58.239Z,59.92
2023-02-17T06:36:00.167Z,59.73
2023-02-17T06:38:02.358Z,60.41
2023-02-17T06:40:05.126Z,59.93
2023-02-17T06:42:07.424Z,60.54
2023-02-17T06:44:09.519Z,60.48
2023-02-17T06:46:12.180Z,61.27
2023-02-17T06:48:14.389Z,60.92
2023-02-17T06:50:18.643Z,61.06
2023-02-17T06:52:20.654Z,61.93
2023-02-17T06:54:22.884Z,61.08
2023-02-17T06:56:24.872Z,61.07
2023-02-17T06:58:27.367Z,60.79
2023-02-17T07:00:29.430Z,61.40
2023-02-17T07:02:31.731Z,61.31
2023-02-17T07:04:36.715Z,61.33
2023-02-17T07:06:38.938Z,61.42
2023-02-17T07:08:41.084Z,61.01
2023-02-17T07:10:43.207Z,61.29
2023-02-17T07:12:45.252Z,61.83
2023-02-17T07:14:47.491Z,62.79
2023-02-17T07:16:49.714Z,62.47
2023-02-17T07:18:52.273Z,62.17
2023-02-17T07:20:54.501Z,61.65
2023-02-17T07:22:57.134Z,62.46
2023-02-17T07:24:59.224Z,62.10
2023-02-17T07:27:01.493Z,62.08
2023-02-17T07:29:04.590Z,62.43
2023-02-17T07:31:12.399Z,62.78
2023-02-17T07:33:14.534Z,62.27
2023-02-17T07:35:17.049Z,62.24
2023-02-17T07:37:21.956Z,62.34
2023-02-17T07:39:24.047Z,62.78
2023-02-17T07:41:28.915Z,63.67
2023-02-17T07:43:31.140Z,62.89
2023-02-17T07:45:33.684Z,62.39
2023-02-17T07:47:38.096Z,62.58
2023-02-17T07:49:40.402Z,62.09
2023-02-17T07:51:42.552Z,62.17
2023-02-17T07:53:44.579Z,61.66
2023-02-17T07:55:46.923Z,61.77
2023-02-17T07:57:48.876Z,61.42
2023-02-17T07:59:50.932Z,61.19
2023-02-17T08:01:52.995Z,61.17
2023-02-17T08:03:57.108Z,61.16
2023-02-17T08:05:59.097Z,61.24
2023-02-17T08:08:19.784Z,61.07
2023-02-17T08:10:40.123Z,60.78
2023-02-17T08:13:00.403Z,60.70
2023-02-17T08:15:02.552Z,60.85
2023-02-17T08:17:05.886Z,61.01
2023-02-17T08:19:08.589Z,61.06
2023-02-17T08:21:10.731Z,60.65
2023-02-17T08:23:12.822Z,60.74
2023-02-17T08:25:15.143Z,60.40
2023-02-17T08:27:18.286Z,60.27
2023-02-17T08:29:21.189Z,60.21
2023-02-17T08:31:26.415Z,59.75
2023-02-17T08:33:28.790Z,59.89
2023-02-17T08:35:31.009Z,60.03
2023-02-17T08:37:33.329Z,59.81
2023-02-17T08:39:35.829Z,59.78
2023-02-17T08:41:39.467Z,59.48
2023-02-17T08:43:42.475Z,59.48
2023-02-17T08:45:46.166Z,59.29
2023-02-17T08:47:51.188Z,59.37
2023-02-17T08:49:53.425Z,58.92
2023-02-17T08:51:55.497Z,59.28
2023-02-17T08:54:00.919Z,59.27
2023-02-17T08:56:02.998Z,58.80
2023-02-17T08:58:05.160Z,58.90
2023-02-17T09:00:09.674Z,59.08
2023-02-17T09:02:11.979Z,59.06
2023-02-17T09:04:15.419Z,58.66
2023-02-17T09:06:18.062Z,59.00
2023-02-17T09:08:20.228Z,58.82
2023-02-17T09:10:22.871Z,58.52
2023-02-17T09:12:24.970Z,58.64
2023-02-17T09:14:27.922Z,58.71
2023-02-17T09:16:31.168Z,58.66
2023-02-17T09:18:36.370Z,58.25
2023-02-17T09:20:39.735Z,58.00
2023-02-17T09:22:41.835Z,58.38
2023-02-17T09:24:44.659Z,58.05
2023-02-17T09:26:46.599Z,57.88
2023-02-17T09:28:49.608Z,57.94
2023-02-17T09:30:51.889Z,57.85
2023-02-17T09:32:54.077Z,57.69
2023-02-17T09:34:56.233Z,57.73
2023-02-17T09:36:58.595Z,57.20
2023-02-17T09:39:01.946Z,57.62
2023-02-17T09:41:18.143Z,57.47
2023-02-17T09:43:27.047Z,57.39
2023-02-17T09:45:34.905Z,57.42
2023-02-17T09:47:54.049Z,57.51
2023-02-17T09:50:44.437Z,57.59
2023-02-17T09:52:53.700Z,57.07
2023-02-17T09:55:10.741Z,56.88
2023-02-17T09:57:19.849Z,56.90
2023-02-17T09:59:32.347Z,56.68
2023-02-17T10:01:35.858Z,56.81
2023-02-17T10:03:44.372Z,56.81
2023-02-17T10:05:59.409Z,56.80
2023-02-17T10:08:24.306Z,56.90
2023-02-17T10:10:48.902Z,56.98
2023-02-17T10:12:56.323Z,56.58
2023-02-17T10:15:03.801Z,56.59
2023-02-17T10:17:28.521Z,56.68
2023-02-17T10:19:41.488Z,56.35
2023-02-17T10:21:57.639Z,56.66
2023-02-17T10:23:59.806Z,56.58
2023-02-17T10:26:08.787Z,56.91
2023-02-17T10:28:18.801Z,57.09
2023-02-17T10:30:38.236Z,56.46
2023-02-17T10:33:02.687Z,56.44
2023-02-17T10:35:13.765Z,56.56
2023-02-17T10:37:32.532Z,56.67
2023-02-17T10:39:49.154Z,56.77
2023-02-17T10:41:52.994Z,56.78
2023-02-17T10:43:55.812Z,56.68
2023-02-17T10:45:59.986Z,56.82
2023-02-17T10:48:04.037Z,56.60
2023-02-17T10:50:14.559Z,56.79
2023-02-17T10:52:21.121Z,56.69
2023-02-17T10:55:06.513Z,57.03
2023-02-17T10:57:19.464Z,56.65
2023-02-17T10:59:30.540Z,57.01
2023-02-17T11:01:34.158Z,56.78
2023-02-17T11:03:41.319Z,57.13
2023-02-17T11:05:43.655Z,57.05
2023-02-17T11:07:46.194Z,57.19
2023-02-17T11:09:56.162Z,57.24
2023-02-17T11:12:09.106Z,57.27
2023-02-17T11:14:23.959Z,57.08
2023-02-17T11:16:29.609Z,57.26
2023-02-17T11:18:38.465Z,57.22
2023-02-17T11:20:40.794Z,56.82
2023-02-17T11:22:49.288Z,56.55
2023-02-17T11:25:03.794Z,56.77
2023-02-17T11:27:11.919Z,56.72
2023-02-17T11:29:21.464Z,56.67
2023-02-17T11:31:27.077Z,56.68
2023-02-17T11:33:40.631Z,56.56
2023-02-17T11:35:42.528Z,56.77
2023-02-17T11:37:44.622Z,56.38
2023-02-17T11:39:49.208Z,56.39
2023-02-17T11:41:51.340Z,56.43
2023-02-17T11:43:59.472Z,56.24
2023-02-17T11:46:28.753Z,56.50
2023-02-17T11:48:33.618Z,56.54
2023-02-17T11:50:48.539Z,55.89
2023-02-17T11:53:00.021Z,55.83
2023-02-17T11:55:27.049Z,55.78
2023-02-17T11:57:45.341Z,56.02
2023-02-17T12:00:22.782Z,55.96
2023-02-17T12:02:46.902Z,55.78
2023-02-17T12:05:21.233Z,55.71
2023-02-17T12:07:40.408Z,55.98
2023-02-17T12:10:10.367Z,55.44
2023-02-17T12:12:54.394Z,55.74
2023-02-17T12:15:02.295Z,55.85
2023-02-17T12:17:45.976Z,55.74
2023-02-17T12:19:50.711Z,55.86
2023-02-17T12:22:07.737Z,55.42
2023-02-17T12:24:19.239Z,56.10
2023-02-17T12:26:42.296Z,55.60
2023-02-17T12:29:09.390Z,55.71
2023-02-17T12:31:36.543Z,55.53
2023-02-17T12:34:15.495Z,55.33
2023-02-17T12:36:25.767Z,55.50
2023-02-17T12:38:55.513Z,55.46
2023-02-17T12:41:08.535Z,55.56
2023-02-17T12:43:36.696Z,55.16
2023-02-17T12:45:45.810Z,55.55
2023-02-17T12:47:57.489Z,55.80
2023-02-17T12:50:14.942Z,55.83
2023-02-17T12:52:29.451Z,55.68
2023-02-17T12:54:42.011Z,55.65
2023-02-17T12:56:55.294Z,55.97
2023-02-17T12:59:16.085Z,55.79
2023-02-17T13:01:21.867Z,55.81
2023-02-17T13:03:25.027Z,55.69
2023-02-17T13:05:55.283Z,56.10
2023-02-17T13:08:04.591Z,55.96
2023-02-17T13:10:08.113Z,55.65
2023-02-17T13:12:30.404Z,55.65
2023-02-17T13:14:44.594Z,55.38
2023-02-17T13:16:47.311Z,55.47
2023-02-17T13:18:52.349Z,55.38
2023-02-17T13:20:56.114Z,55.07
2023-02-17T13:23:11.578Z,54.38
2023-02-17T13:25:37.337Z,54.07
2023-02-17T13:27:41.222Z,54.38
2023-02-17T13:29:43.428Z,54.47
2023-02-17T13:31:53.055Z,54.20
2023-02-17T13:33:59.778Z,54.33
2023-02-17T13:36:15.688Z,54.48
2023-02-17T13:38:29.824Z,53.74
2023-02-17T13:40:38.796Z,53.88
2023-02-17T13:42:44.390Z,53.83
2023-02-17T13:44:48.843Z,53.81
2023-02-17T13:46:51.733Z,54.05
2023-02-17T13:49:06.902Z,53.40
2023-02-17T13:51:26.130Z,53.18
2023-02-17T13:53:28.157Z,53.73
2023-02-17T13:55:30.628Z,53.50
2023-02-17T13:57:37.105Z,53.07
2023-02-17T13:59:39.508Z,53.57
2023-02-17T14:01:42.900Z,53.73
2023-02-17T14:03:53.111Z,53.16
2023-02-17T14:06:00.494Z,53.54
2023-02-17T14:08:14.495Z,52.97
2023-02-17T14:10:22.107Z,53.39
2023-02-17T14:12:26.092Z,53.39
2023-02-17T14:14:39.966Z,52.86
2023-02-17T14:16:46.982Z,53.07
2023-02-17T14:18:49.152Z,53.36
2023-02-17T14:21:00.712Z,53.23
2023-02-17T14:23:07.159Z,53.01
2023-02-17T14:25:16.090Z,52.92
2023-02-17T14:27:17.996Z,53.31
2023-02-17T14:29:20.618Z,52.73
2023-02-17T14:31:27.130Z,52.69
2023-02-17T14:33:29.268Z,52.70
2023-02-17T14:35:35.391Z,52.66
2023-02-17T14:37:38.637Z,52.45
2023-02-17T14:39:40.900Z,52.60
2023-02-17T14:41:44.013Z,51.83
2023-02-17T14:43:46.938Z,52.20
2023-02-17T14:45:50.487Z,52.43
2023-02-17T14:47:52.696Z,52.55
2023-02-17T14:49:54.952Z,52.40
2023-02-17T14:51:56.976Z,52.52
2023-02-17T14:53:59.072Z,52.85
2023-02-17T14:56:10.566Z,52.32
2023-02-17T14:58:19.738Z,52.59
2023-02-17T15:00:22.397Z,52.53
2023-02-17T15:02:24.733Z,52.74
2023-02-17T15:04:26.902Z,52.59
2023-02-17T15:06:50.843Z,52.18
2023-02-17T15:08:52.988Z,52.58
2023-02-17T15:10:55.664Z,52.46
2023-02-17T15:12:58.047Z,52.73
2023-02-17T15:15:00.550Z,52.71
2023-02-17T15:17:02.556Z,52.55
2023-02-17T15:19:04.707Z,52.55
2023-02-17T15:21:25.697Z,52.50
2023-02-17T15:23:31.983Z,52.62
2023-02-17T15:25:35.714Z,52.83
2023-02-17T15:27:37.778Z,53.02
2023-02-17T15:29:40.189Z,53.01
2023-02-17T15:31:42.615Z,52.96
2023-02-17T15:33:45.168Z,52.80
2023-02-17T15:35:51.015Z,52.73
2023-02-17T15:37:54.260Z,52.69
2023-02-17T15:39:59.088Z,52.58
2023-02-17T15:42:07.547Z,52.64
2023-02-17T15:44:21.956Z,52.17
2023-02-17T15:46:32.210Z,52.54
2023-02-17T15:48:34.881Z,52.53
2023-02-17T15:50:37.114Z,52.31
2023-02-17T15:52:39.270Z,52.38
2023-02-17T15:54:42.926Z,51.82
2023-02-17T15:56:51.230Z,51.82
2023-02-17T15:58:53.991Z,52.30
2023-02-17T16:01:04.157Z,51.80
2023-02-17T16:03:08.537Z,51.98
2023-02-17T16:05:22.888Z,51.71
2023-02-17T16:07:25.004Z,52.35
2023-02-17T16:09:29.271Z,51.78
2023-02-17T16:11:32.213Z,51.97
2023-02-17T16:13:34.120Z,51.40
2023-02-17T16:15:37.594Z,51.32
2023-02-17T16:17:39.615Z,51.33
2023-02-17T16:19:41.946Z,51.49
2023-02-17T16:21:44.100Z,51.39
2023-02-17T16:23:46.361Z,51.46
2023-02-17T16:25:50.598Z,51.36
2023-02-17T16:27:53.651Z,51.33
2023-02-17T16:29:55.817Z,51.64
2023-02-17T16:31:57.982Z,51.77
2023-02-17T16:34:00.576Z,51.61
2023-02-17T16:36:02.845Z,51.77
2023-02-17T16:38:16.031Z,52.37
2023-02-17T16:51:35.370Z,52.67
2023-02-17T16:53:37.493Z,53.26
2023-02-17T16:55:39.509Z,53.77
2023-02-17T16:57:42.979Z,54.28
2023-02-17T16:59:45.742Z,54.20
2023-02-17T17:01:48.586Z,54.20
2023-02-17T17:03:51.323Z,54.12
2023-02-17T17:05:53.688Z,54.12
2023-02-17T17:07:56.598Z,54.25
2023-02-17T17:10:15.299Z,53.79
2023-02-17T17:12:18.534Z,53.70
2023-02-17T17:14:21.888Z,53.66
2023-02-17T17:16:34.158Z,53.54
2023-02-17T17:18:36.150Z,53.27
2023-02-17T17:20:41.688Z,53.48
2023-02-17T17:22:43.961Z,53.00
2023-02-17T17:24:46.203Z,53.39
2023-02-17T17:26:50.332Z,53.22
2023-02-17T17:28:53.123Z,53.06
2023-02-17T17:30:55.221Z,53.27
2023-02-17T17:32:57.317Z,52.88
2023-02-17T17:34:59.265Z,53.23
2023-02-17T17:37:01.657Z,53.59
2023-02-17T17:39:08.406Z,53.24
2023-02-17T17:41:13.473Z,53.58
2023-02-17T17:43:16.765Z,53.48
2023-02-17T17:45:19.310Z,53.61
2023-02-17T17:47:29.943Z,53.96
2023-02-17T17:49:32.633Z,53.91
2023-02-17T17:51:34.769Z,53.88
2023-02-17T17:53:36.939Z,53.68
2023-02-17T17:55:41.523Z,53.91
2023-02-17T17:57:43.589Z,53.97
2023-02-17T17:59:46.734Z,54.27
2023-02-17T18:01:48.848Z,54.39
2023-02-17T18:03:51.578Z,54.50
2023-02-17T18:05:53.718Z,54.64
2023-02-17T18:07:56.636Z,54.92
2023-02-17T18:09:59.535Z,54.79
2023-02-17T18:12:07.566Z,55.04
2023-02-17T18:14:13.853Z,55.28
2023-02-17T18:16:16.636Z,55.24
2023-02-17T18:18:19.462Z,55.22
2023-02-17T18:20:21.898Z,54.96
2023-02-17T18:22:24.267Z,55.46
2023-02-17T18:24:26.265Z,55.08
2023-02-17T18:26:29.474Z,55.47
2023-02-17T18:28:31.893Z,55.15
2023-02-17T18:30:36.710Z,55.59
2023-02-17T18:32:44.048Z,55.74
2023-02-17T18:34:46.248Z,55.66
2023-02-17T18:36:48.371Z,55.54
2023-02-17T18:38:51.137Z,55.58
2023-02-17T18:40:53.213Z,55.77
2023-02-17T18:42:55.829Z,55.85
2023-02-17T18:44:57.953Z,55.50
2023-02-17T18:47:00.838Z,55.54
2023-02-17T18:49:03.029Z,55.43
2023-02-17T18:51:10.434Z,55.91
2023-02-17T18:53:12.879Z,55.91
2023-02-17T18:55:15.555Z,55.80
2023-02-17T18:57:17.489Z,55.67
2023-02-17T18:59:19.643Z,55.81
2023-02-17T19:01:23.141Z,56.42
2023-02-17T19:03:29.749Z,56.18
2023-02-17T19:05:32.373Z,55.99
2023-02-17T19:07:35.032Z,56.20
2023-02-17T19:09:39.690Z,56.23
2023-02-17T19:11:42.138Z,55.80
2023-02-17T19:13:44.462Z,55.85
2023-02-17T19:15:46.507Z,55.73
2023-02-17T19:17:48.968Z,55.50
2023-02-17T19:19:52.492Z,56.02
2023-02-17T19:21:54.761Z,55.50
2023-02-17T19:23:56.748Z,55.70
2023-02-17T19:26:01.468Z,55.51
2023-02-17T19:28:06.452Z,55.11
2023-02-17T19:30:10.591Z,55.32
2023-02-17T19:32:13.185Z,55.40
2023-02-17T19:34:17.682Z,55.44
2023-02-17T19:36:22.639Z,55.49
2023-02-17T19:38:25.701Z,55.73
2023-02-17T19:40:27.719Z,55.71
2023-02-17T19:42:30.515Z,55.73
2023-02-17T19:44:32.775Z,55.56
2023-02-17T19:46:34.834Z,55.19
2023-02-17T19:48:36.759Z,55.73
2023-02-17T19:50:39.257Z,55.74
2023-02-17T19:52:41.225Z,55.52
2023-02-17T19:54:43.548Z,55.63
2023-02-17T19:56:49.178Z,55.21
2023-02-17T19:58:52.508Z,54.92
2023-02-17T20:00:54.409Z,55.45
2023-02-17T20:02:56.523Z,55.33
2023-02-17T20:04:58.720Z,55.22
2023-02-17T20:07:03.383Z,55.51
2023-02-17T20:09:08.785Z,55.31
2023-02-17T20:11:11.904Z,55.67
2023-02-17T20:13:13.767Z,55.78
2023-02-17T20:15:16.065Z,55.30
2023-02-17T20:17:18.083Z,55.66
2023-02-17T20:19:20.106Z,55.47
2023-02-17T20:21:26.254Z,55.28
2023-02-17T20:23:31.098Z,55.88
2023-02-17T20:25:33.516Z,55.51
2023-02-17T20:27:35.688Z,55.67
2023-02-17T20:29:38.068Z,55.60
2023-02-17T20:31:42.002Z,55.80
2023-02-17T20:33:47.589Z,55.96
2023-02-17T20:35:49.825Z,55.88
2023-02-17T20:37:53.053Z,56.07
2023-02-17T20:39:55.185Z,55.84
2023-02-17T20:41:57.539Z,56.20
2023-02-17T20:44:02.998Z,56.59
2023-02-17T20:46:05.618Z,56.49
2023-02-17T20:48:07.927Z,56.59
2023-02-17T20:50:14.764Z,56.34
2023-02-17T20:52:16.872Z,56.53
2023-02-17T20:54:18.978Z,56.68
2023-02-17T20:56:25.745Z,56.17
2023-02-17T20:58:29.122Z,56.26
2023-02-17T21:00:31.757Z,56.54
2023-02-17T21:02:34.230Z,56.43
2023-02-17T21:04:36.280Z,56.52
2023-02-17T21:06:41.466Z,56.56
2023-02-17T21:08:43.943Z,56.52
2023-02-17T21:10:46.540Z,56.62
2023-02-17T21:12:49.068Z,56.80
2023-02-17T21:14:51.550Z,57.13
2023-02-17T21:16:53.952Z,57.05
2023-02-17T21:18:55.970Z,57.21
2023-02-17T21:20:57.925Z,57.26
2023-02-17T21:23:01.168Z,57.45
2023-02-17T21:25:04.525Z,57.55
2023-02-17T21:27:06.503Z,57.30
2023-02-17T21:29:08.427Z,57.31
2023-02-17T21:31:10.978Z,57.40
2023-02-17T21:33:13.601Z,57.53
2023-02-17T21:35:15.733Z,57.80
2023-02-17T21:37:18.173Z,57.53
2023-02-17T21:39:21.435Z,57.69
2023-02-17T21:41:25.128Z,57.72
2023-02-17T21:43:45.985Z,57.74
2023-02-17T21:45:48.081Z,58.10
2023-02-17T21:47:50.141Z,57.75
2023-02-17T21:49:54.604Z,58.34
2023-02-17T21:51:56.715Z,58.53
2023-02-17T21:53:59.424Z,58.63
2023-02-17T21:56:02.610Z,58.57
2023-02-17T21:58:04.537Z,58.90
2023-02-17T22:00:07.236Z,58.75
2023-02-17T22:02:14.081Z,59.26
2023-02-17T22:04:16.187Z,59.22
2023-02-17T22:06:20.890Z,59.57
2023-02-17T22:08:24.058Z,59.85
2023-02-17T22:10:26.071Z,59.95
2023-02-17T22:12:28.314Z,60.17
2023-02-17T22:14:30.463Z,60.07
2023-02-17T22:16:35.271Z,60.23
2023-02-17T22:18:37.662Z,60.53
2023-02-17T22:20:44.245Z,61.36
2023-02-17T22:22:46.208Z,61.88
2023-02-17T22:24:48.215Z,61.32
2023-02-17T22:26:50.632Z,62.08
2023-02-17T22:28:54.305Z,61.63
2023-02-17T22:30:56.414Z,61.67
2023-02-17T22:33:02.401Z,61.08
2023-02-17T22:35:05.620Z,61.76
2023-02-17T22:37:07.631Z,61.88
2023-02-17T22:39:09.660Z,62.01
2023-02-17T22:41:14.678Z,62.44
2023-02-17T22:43:16.621Z,61.96
2023-02-17T22:45:18.722Z,62.46
2023-02-17T22:47:20.757Z,62.51
2023-02-17T22:49:22.778Z,63.05
2023-02-17T22:51:36.103Z,63.29
2023-02-17T22:53:41.136Z,63.97
2023-02-17T22:55:43.509Z,63.74
2023-02-17T22:57:47.461Z,63.54
2023-02-17T22:59:49.702Z,63.80
2023-02-17T23:01:51.713Z,64.02
2023-02-17T23:03:56.657Z,63.98
2023-02-17T23:06:04.230Z,64.67
2023-02-17T23:08:06.196Z,63.59
2023-02-17T23:10:08.952Z,64.04
2023-02-17T23:12:11.013Z,63.79
2023-02-17T23:14:14.267Z,65.00
2023-02-17T23:16:21.678Z,64.03
2023-02-17T23:18:24.064Z,64.46
2023-02-17T23:20:26.017Z,64.67
2023-02-17T23:22:27.896Z,64.71
2023-02-17T23:24:30.029Z,64.49
2023-02-17T23:26:32.117Z,64.13
2023-02-17T23:28:34.668Z,64.72
2023-02-17T23:30:37.214Z,65.12
2023-02-17T23:32:39.425Z,65.20
2023-02-17T23:34:41.917Z,65.42
2023-02-17T23:36:45.843Z,64.96
2023-02-17T23:38:48.177Z,65.68
2023-02-17T23:40:52.208Z,65.50
2023-02-17T23:42:54.653Z,65.13
2023-02-17T23:44:57.002Z,65.48
2023-02-17T23:47:00.606Z,65.67
2023-02-17T23:49:06.237Z,65.62
2023-02-17T23:51:08.370Z,66.26
2023-02-17T23:53:10.578Z,65.34
2023-02-17T23:55:15.354Z,65.63
2023-02-17T23:57:17.566Z,65.56
2023-02-17T23:59:19.668Z,65.24
